Campo, California
Current Conditions -  °F | °C
As of 6:41 AM on Monday 24 Nov 2014 (Local Time) from MMTJ Reporting Station
Broken Clouds Broken Clouds  
Wind Chill: 61°   Ceiling: 20000
Heat Index: 61°   Visibility: 10mi
Dew Point: 14°   Wind: 9mph
Humidity: 16%   Direction: 90°E
Pressure: 30.18"   Gusts: NA
Location:  32.61°N, 116.47°W
Report Text: MMTJ 241441Z 09008KT 10SM BKN200 16/M10 A3018 RMK SLP223 52009 935 8/002
Loading
Personal Weather Stations






























Interactive Weather Map New forecast layout! Learn more

10-Day Weather Forecast

Advertisements
Track Severe Weather on mobile